Time;durP1;ratioP1;P1;durP2;ratioP2;P2;SDS_P1;SDS_P2;PMS_P1;PMS_P2;Temp;Humidity;BMP_temperature;BMP_pressure;BME280_temperature;BME280_humidity;BME280_pressure;Samples;Min_cycle;Max_cycle;Signal;HPM_P1;HPM_P2
2023/06/03 00:02:05;;;;;;;5.05;3.22;;;;;;;25.31;51.71;100753.69;5094849;28;20048;-56
2023/06/03 00:04:32;;;;;;;3.97;3.05;;;;;;;25.32;51.72;100752.66;5094790;28;20047;-57
2023/06/03 00:07:00;;;;;;;4.40;3.30;;;;;;;25.30;51.75;100755.56;5094700;28;20048;-56
2023/06/03 00:09:27;;;;;;;4.47;3.70;;;;;;;25.31;51.67;100757.22;5094343;28;20058;-57
2023/06/03 00:11:54;;;;;;;4.32;3.28;;;;;;;25.33;51.66;100757.06;5094538;28;20044;-59
2023/06/03 00:14:22;;;;;;;5.15;3.20;;;;;;;25.32;51.68;100768.91;5094623;28;20055;-60
2023/06/03 00:16:49;;;;;;;4.60;3.40;;;;;;;25.32;51.46;100768.91;5094337;28;20464;-59
2023/06/03 00:19:18;;;;;;;5.63;3.38;;;;;;;25.33;51.58;100766.06;5094375;28;20047;-59
2023/06/03 00:21:49;;;;;;;4.45;3.28;;;;;;;25.32;51.65;100769.78;5094251;28;20047;-59
2023/06/03 00:24:20;;;;;;;4.75;3.70;;;;;;;25.32;51.57;100769.78;5094323;28;20048;-59
2023/06/03 00:26:47;;;;;;;4.38;3.40;;;;;;;25.34;51.73;100775.03;5094441;28;20487;-59
2023/06/03 00:29:15;;;;;;;4.50;3.58;;;;;;;25.32;51.67;100767.06;5094439;28;20373;-59
2023/06/03 00:31:44;;;;;;;4.78;3.45;;;;;;;25.32;51.59;100764.38;5094177;28;20051;-56
2023/06/03 00:34:13;;;;;;;6.32;4.00;;;;;;;25.33;51.72;100776.06;5092517;28;20063;-57
2023/06/03 00:36:41;;;;;;;3.65;3.05;;;;;;;25.33;51.67;100785.03;5092186;28;20059;-56
2023/06/03 00:39:09;;;;;;;4.80;3.20;;;;;;;25.33;51.64;100782.31;5091543;28;20052;-56
2023/06/03 00:41:36;;;;;;;5.05;3.28;;;;;;;25.34;51.70;100777.72;5091770;28;20071;-59
2023/06/03 00:44:04;;;;;;;4.47;3.10;;;;;;;25.33;51.65;100782.31;5091775;28;20044;-59
2023/06/03 00:46:36;;;;;;;6.65;3.53;;;;;;;25.34;51.63;100794.00;5093040;28;20055;-59
2023/06/03 00:49:04;;;;;;;4.28;3.42;;;;;;;25.35;51.81;100799.22;5093281;28;20048;-59
2023/06/03 00:51:33;;;;;;;4.38;3.17;;;;;;;25.34;51.64;100797.53;5091978;28;20044;-59
2023/06/03 00:54:01;;;;;;;6.30;3.30;;;;;;;25.34;51.67;100804.84;5091787;28;20044;-59
2023/06/03 00:56:29;;;;;;;4.57;3.42;;;;;;;25.35;51.85;100798.38;5092154;28;20048;-57
2023/06/03 00:58:57;;;;;;;3.65;3.00;;;;;;;25.34;51.68;100794.00;5091715;28;20491;-57
2023/06/03 01:01:28;;;;;;;5.20;3.42;;;;;;;25.35;51.78;100801.09;5093077;28;20056;-56
2023/06/03 01:03:56;;;;;;;4.32;3.40;;;;;;;25.35;51.71;100811.94;5091846;28;20059;-56
2023/06/03 01:06:45;;;;;;;3.88;2.83;;;;;;;25.34;51.78;100800.25;5092827;28;20051;-57
2023/06/03 01:09:32;;;;;;;5.03;3.00;;;;;;;25.34;51.83;100811.09;5092909;28;20040;-57
2023/06/03 01:12:19;;;;;;;4.15;3.08;;;;;;;25.35;51.78;100822.78;5091689;28;20468;-54
2023/06/03 01:14:55;;;;;;;3.80;3.10;;;;;;;25.34;51.75;100816.50;5092674;28;20044;-54
2023/06/03 01:17:30;;;;;;;4.38;3.25;;;;;;;25.35;51.82;100823.63;5091882;28;20052;-54
2023/06/03 01:19:59;;;;;;;4.82;3.47;;;;;;;25.35;51.84;100823.63;5092849;28;20044;-53
2023/06/03 01:22:28;;;;;;;4.10;3.17;;;;;;;25.35;51.82;100825.47;5092674;28;20058;-56
2023/06/03 01:25:08;;;;;;;4.95;3.10;;;;;;;25.35;51.42;100831.75;5092786;28;20055;-57
2023/06/03 01:27:39;;;;;;;3.30;2.72;;;;;;;25.34;51.54;100829.22;5091831;28;20059;-56
2023/06/03 01:30:09;;;;;;;3.88;3.45;;;;;;;25.34;51.67;100837.34;5092785;28;20048;-54
2023/06/03 01:32:38;;;;;;;4.63;3.20;;;;;;;25.35;51.61;100844.44;5092881;28;20059;-54
2023/06/03 01:35:08;;;;;;;4.70;3.28;;;;;;;25.34;51.70;100842.78;5091633;28;20048;-54
2023/06/03 01:37:36;;;;;;;4.37;3.07;;;;;;;25.34;51.54;100838.19;5052225;28;1122851;-54
2023/06/03 01:40:05;;;;;;;4.95;3.03;;;;;;;25.35;51.53;100849.88;5092547;28;20058;-55
2023/06/03 01:42:35;;;;;;;4.85;3.33;;;;;;;25.35;51.58;100858.00;5092257;28;20391;-54
2023/06/03 01:45:04;;;;;;;4.70;2.90;;;;;;;25.34;51.74;100851.75;5092238;28;20060;-54
2023/06/03 01:47:34;;;;;;;4.07;3.03;;;;;;;25.35;51.63;100855.28;5092910;28;20048;-54
2023/06/03 01:50:03;;;;;;;4.72;3.28;;;;;;;25.35;51.53;100852.59;5093061;28;20047;-54
2023/06/03 01:52:31;;;;;;;4.55;3.05;;;;;;;25.34;51.80;100849.03;5092174;28;20055;-56
2023/06/03 01:54:58;;;;;;;4.60;3.35;;;;;;;25.36;51.83;100862.41;5092263;28;20496;-57
2023/06/03 01:57:27;;;;;;;3.88;2.72;;;;;;;25.35;51.92;100866.97;5092447;28;20056;-57
2023/06/03 01:59:55;;;;;;;4.47;2.97;;;;;;;25.34;51.83;100867.16;5092347;28;20056;-57
2023/06/03 02:02:23;;;;;;;3.45;2.92;;;;;;;25.35;51.95;100868.84;5092008;28;20060;-56
2023/06/03 02:04:51;;;;;;;5.00;3.10;;;;;;;25.34;51.94;100865.28;5093160;28;20051;-57
2023/06/03 02:07:20;;;;;;;4.63;3.38;;;;;;;25.34;52.02;100865.28;5092110;28;20055;-57
2023/06/03 02:09:48;;;;;;;4.40;3.22;;;;;;;25.35;51.93;100860.72;5093016;28;20048;-57
2023/06/03 02:12:15;;;;;;;4.25;2.85;;;;;;;25.35;52.00;100849.88;5091610;28;20063;-56
2023/06/03 02:14:43;;;;;;;3.58;2.70;;;;;;;25.35;52.02;100863.44;5091312;28;20059;-56
2023/06/03 02:17:11;;;;;;;4.50;2.83;;;;;;;25.35;52.00;100860.72;5092845;28;20514;-57
2023/06/03 02:19:39;;;;;;;3.88;2.97;;;;;;;25.35;52.02;100858.84;5092848;28;20071;-56
2023/06/03 02:22:07;;;;;;;4.28;3.20;;;;;;;25.35;52.05;100858.00;5093201;28;20040;-54
2023/06/03 02:24:38;;;;;;;4.65;3.08;;;;;;;25.36;52.29;100867.81;5095337;28;20048;-53
2023/06/03 02:27:06;;;;;;;4.13;3.15;;;;;;;25.36;52.18;100873.25;5095704;28;20059;-53
2023/06/03 02:29:33;;;;;;;4.80;2.80;;;;;;;25.36;52.32;100884.06;5095441;28;20052;-54
2023/06/03 02:32:01;;;;;;;5.00;2.90;;;;;;;25.36;52.26;100889.50;5095594;28;20083;-54
2023/06/03 02:34:29;;;;;;;4.25;3.00;;;;;;;25.36;52.29;100900.34;5096323;28;20040;-53
2023/06/03 02:36:56;;;;;;;4.03;2.95;;;;;;;25.36;52.26;100898.50;5096403;28;20500;-53
2023/06/03 02:39:24;;;;;;;4.93;3.50;;;;;;;25.36;52.27;100892.22;5095514;28;20051;-54
2023/06/03 02:41:51;;;;;;;4.88;3.78;;;;;;;25.36;52.44;100900.34;5096505;28;20055;-54
2023/06/03 02:44:20;;;;;;;4.25;3.00;;;;;;;25.36;52.37;100908.47;5094964;28;20044;-54
2023/06/03 02:46:47;;;;;;;4.15;3.50;;;;;;;25.37;52.19;100907.47;5094702;28;20047;-54
2023/06/03 02:49:15;;;;;;;3.70;3.03;;;;;;;25.36;52.14;100905.75;5096195;28;20490;-54
2023/06/03 02:51:42;;;;;;;3.63;3.15;;;;;;;25.37;52.29;100904.75;5095936;28;20048;-54
2023/06/03 02:54:10;;;;;;;3.58;3.17;;;;;;;25.37;52.36;100907.47;5096008;28;20058;-54
2023/06/03 02:56:37;;;;;;;4.03;3.10;;;;;;;25.37;52.22;100916.44;5094963;28;20484;-54
2023/06/03 02:59:05;;;;;;;4.72;2.83;;;;;;;25.38;52.23;100918.13;5096043;28;20052;-54
2023/06/03 03:01:32;;;;;;;4.30;3.30;;;;;;;25.39;52.21;100910.84;5094906;28;20412;-56
2023/06/03 03:04:00;;;;;;;4.85;3.20;;;;;;;25.38;52.04;100918.13;5095446;28;20048;-57
2023/06/03 03:06:29;;;;;;;4.25;3.20;;;;;;;25.40;52.31;100923.38;5095550;28;20483;-57
2023/06/03 03:08:56;;;;;;;4.05;2.90;;;;;;;25.39;52.46;100927.09;5094352;28;20052;-57
2023/06/03 03:11:33;;;;;;;3.72;2.53;;;;;;;25.38;52.38;100926.25;5094917;28;20063;-54
2023/06/03 03:14:02;;;;;;;4.53;3.38;;;;;;;25.39;52.32;100932.53;5094680;28;20044;-54
2023/06/03 03:16:30;;;;;;;4.40;3.13;;;;;;;25.38;52.35;100933.56;5094192;28;20075;-54
2023/06/03 03:19:00;;;;;;;4.35;3.10;;;;;;;25.38;52.58;100934.41;5094592;28;20491;-53
2023/06/03 03:21:28;;;;;;;4.00;3.05;;;;;;;25.38;52.50;100938.97;5094908;28;20411;-56
2023/06/03 03:23:59;;;;;;;4.03;3.03;;;;;;;25.37;52.36;100940.84;5094847;28;20056;-56
2023/06/03 03:26:29;;;;;;;3.72;3.03;;;;;;;25.37;52.46;100940.00;5094754;28;20052;-56
2023/06/03 03:28:57;;;;;;;3.58;2.88;;;;;;;25.36;52.54;100947.28;5095531;28;20464;-57
2023/06/03 03:31:26;;;;;;;4.80;3.45;;;;;;;25.36;52.62;100941.88;5095254;28;20518;-56
2023/06/03 03:33:54;;;;;;;4.53;2.72;;;;;;;25.37;52.31;100946.25;5093770;28;20115;-56
2023/06/03 03:36:22;;;;;;;3.55;2.83;;;;;;;25.37;52.38;100940.84;5093546;28;20052;-56
2023/06/03 03:39:05;;;;;;;6.38;3.65;;;;;;;25.36;52.57;100955.41;5093933;28;20130;-56
2023/06/03 03:41:43;;;;;;;5.90;2.97;;;;;;;25.37;52.47;100950.84;5094317;28;20488;-54
2023/06/03 03:44:12;;;;;;;3.50;2.70;;;;;;;25.37;52.59;100950.84;5093770;28;20044;-54
2023/06/03 03:46:51;;;;;;;4.93;3.10;;;;;;;25.37;52.58;100953.56;5094887;28;20063;-54
2023/06/03 03:49:30;;;;;;;4.53;3.13;;;;;;;25.36;52.78;100955.41;5095045;28;20476;-54
2023/06/03 03:52:05;;;;;;;3.92;3.03;;;;;;;25.36;52.63;100957.25;5093710;28;20376;-54
2023/06/03 03:54:38;;;;;;;3.70;3.00;;;;;;;25.36;52.64;100958.13;5094122;28;20048;-54
2023/06/03 03:57:12;;;;;;;3.33;2.92;;;;;;;25.36;52.63;100954.53;5093781;28;20048;-54
2023/06/03 03:59:44;;;;;;;4.07;3.03;;;;;;;25.36;52.70;100960.84;5093550;28;20052;-54
2023/06/03 04:02:13;;;;;;;6.60;2.97;;;;;;;25.35;52.92;100959.13;5093828;28;20055;-53
2023/06/03 04:04:44;;;;;;;4.78;3.05;;;;;;;25.35;52.84;100966.41;5093498;28;20052;-54
2023/06/03 04:07:17;;;;;;;4.43;3.15;;;;;;;25.35;52.72;100969.13;5094608;28;20048;-54
2023/06/03 04:09:47;;;;;;;4.13;3.42;;;;;;;25.35;52.61;100980.81;5094441;28;20412;-53
2023/06/03 04:12:40;;;;;;;4.28;3.00;;;;;;;25.35;52.73;100983.50;5094406;28;20055;-56
2023/06/03 04:15:12;;;;;;;3.63;2.95;;;;;;;25.35;52.59;100978.09;5091937;28;20048;-56
2023/06/03 04:17:40;;;;;;;4.68;3.00;;;;;;;25.35;52.58;100983.50;5093643;28;20055;-56
2023/06/03 04:20:21;;;;;;;4.93;3.63;;;;;;;25.35;52.60;100988.94;5093080;28;20058;-55
2023/06/03 04:22:51;;;;;;;3.47;2.70;;;;;;;25.35;52.68;100997.06;5094319;28;20048;-53
2023/06/03 04:25:19;;;;;;;5.57;3.13;;;;;;;25.34;52.56;100989.94;5093399;28;20055;-54
2023/06/03 04:27:51;;;;;;;;;;;;;;;25.33;52.65;100999.09;5093573;28;20059;-54
2023/06/03 04:30:19;;;;;;;5.13;3.55;;;;;;;25.35;52.76;101005.19;5093363;28;19920;-56
2023/06/03 04:32:48;;;;;;;4.07;3.20;;;;;;;25.36;52.83;100997.91;5093067;28;20511;-56
2023/06/03 04:35:16;;;;;;;4.07;2.88;;;;;;;25.36;52.85;101004.19;5092501;28;20511;-56
2023/06/03 04:37:45;;;;;;;4.53;3.17;;;;;;;25.37;53.03;101002.34;5092311;28;20503;-56
2023/06/03 04:40:16;;;;;;;4.70;3.35;;;;;;;25.37;53.05;101005.88;5093065;28;20043;-56
2023/06/03 04:42:46;;;;;;;5.47;3.28;;;;;;;25.37;53.41;100999.63;5093951;28;20118;-57
2023/06/03 04:45:14;;;;;;;3.78;2.70;;;;;;;25.36;53.21;101004.19;5092310;28;20048;-56
2023/06/03 04:47:42;;;;;;;5.22;3.17;;;;;;;25.38;53.36;101009.44;5092891;28;20056;-59
2023/06/03 04:50:17;;;;;;;3.90;2.95;;;;;;;25.37;53.26;101008.59;5092702;28;20044;-56
2023/06/03 04:52:45;;;;;;;;;;;;;;;25.35;53.26;101007.06;5092331;28;20052;-58
2023/06/03 04:55:13;;;;;;;3.95;2.92;;;;;;;25.36;53.27;101006.03;5093749;28;19920;-58
2023/06/03 04:57:45;;;;;;;5.55;3.20;;;;;;;25.37;53.31;101007.75;5093106;28;20403;-57
2023/06/03 05:00:18;;;;;;;4.45;3.60;;;;;;;25.36;53.24;101004.19;5092788;28;20055;-56
2023/06/03 05:02:55;;;;;;;4.07;3.38;;;;;;;25.36;53.06;101006.91;5092457;28;20056;-56
2023/06/03 05:05:26;;;;;;;4.75;3.20;;;;;;;25.36;53.19;101014.16;5091844;28;20503;-56
2023/06/03 05:07:54;;;;;;;4.95;3.38;;;;;;;25.36;53.16;101006.91;5093830;28;20052;-57
2023/06/03 05:10:21;;;;;;;5.22;3.35;;;;;;;25.36;53.26;101003.31;5092577;28;20353;-57
2023/06/03 05:12:49;;;;;;;4.53;3.47;;;;;;;25.36;53.32;101000.63;5092450;28;20059;-57
2023/06/03 05:15:18;;;;;;;4.57;3.30;;;;;;;25.35;53.15;101002.47;5092264;28;20059;-57
2023/06/03 05:17:46;;;;;;;4.40;2.92;;;;;;;25.36;53.04;100997.91;5092397;28;20059;-57
2023/06/03 05:20:16;;;;;;;5.15;3.67;;;;;;;25.35;53.10;100996.22;5092477;28;20071;-57
2023/06/03 05:22:43;;;;;;;3.95;3.30;;;;;;;25.35;53.23;100990.78;5093575;28;20044;-57
2023/06/03 05:25:12;;;;;;;4.90;3.42;;;;;;;25.35;53.19;100996.22;5092433;28;20051;-57
2023/06/03 05:27:39;;;;;;;4.47;2.95;;;;;;;25.35;53.09;100997.06;5092359;28;20044;-57
2023/06/03 05:30:14;;;;;;;4.28;3.40;;;;;;;25.35;53.26;101002.47;5092384;28;20051;-57
2023/06/03 05:32:42;;;;;;;4.10;3.10;;;;;;;25.36;53.26;101003.31;5092535;28;20048;-57
2023/06/03 05:35:10;;;;;;;3.70;3.22;;;;;;;25.36;53.22;101003.31;5092090;28;20040;-57
2023/06/03 05:37:38;;;;;;;6.47;3.58;;;;;;;25.35;53.16;101004.34;5093516;28;20492;-57
2023/06/03 05:40:06;;;;;;;4.78;3.28;;;;;;;25.35;53.12;101007.06;5092242;28;20059;-56
2023/06/03 05:42:37;;;;;;;3.58;2.90;;;;;;;25.36;53.40;101004.19;5093348;28;20055;-57
2023/06/03 05:45:06;;;;;;;4.60;2.97;;;;;;;25.36;53.25;101008.75;5091823;28;20051;-57
2023/06/03 05:47:34;;;;;;;4.18;3.03;;;;;;;25.35;53.33;101007.91;5092413;28;20503;-57
2023/06/03 05:50:01;;;;;;;3.70;3.10;;;;;;;25.35;53.27;101009.75;5092008;28;20052;-57
2023/06/03 05:52:30;;;;;;;4.18;3.33;;;;;;;25.36;53.29;101011.44;5075690;28;20391;-55
2023/06/03 05:54:58;;;;;;;4.32;3.75;;;;;;;25.36;53.43;101011.44;5091956;28;20044;-55
2023/06/03 05:57:25;;;;;;;7.75;3.63;;;;;;;25.36;53.46;101015.03;5092733;28;20499;-55
2023/06/03 05:59:53;;;;;;;4.63;3.15;;;;;;;25.35;53.56;101010.59;5096066;28;20059;-55
2023/06/03 06:02:20;;;;;;;5.35;3.42;;;;;;;25.35;53.43;101013.31;5097158;28;20040;-55
2023/06/03 06:04:48;;;;;;;6.20;3.13;;;;;;;25.36;53.61;101011.44;5095892;28;20408;-55
2023/06/03 06:07:16;;;;;;;4.50;3.25;;;;;;;25.36;53.61;101008.75;5095836;28;20052;-55
2023/06/03 06:09:44;;;;;;;4.93;3.28;;;;;;;25.36;53.43;101019.59;5096910;28;20044;-54
2023/06/03 06:12:11;;;;;;;5.43;3.30;;;;;;;25.36;53.59;101015.03;5095558;28;20048;-54
2023/06/03 06:14:39;;;;;;;5.63;4.07;;;;;;;25.36;53.65;101014.16;5095430;28;20048;-54
2023/06/03 06:17:06;;;;;;;4.72;3.53;;;;;;;25.36;53.41;101014.16;5095526;28;20542;-54
2023/06/03 06:19:35;;;;;;;4.25;3.10;;;;;;;25.37;53.54;101018.59;5096735;28;20051;-54
2023/06/03 06:22:04;;;;;;;4.97;3.60;;;;;;;25.36;53.71;101012.34;5095791;28;20500;-57
2023/06/03 06:24:32;;;;;;;4.65;3.42;;;;;;;25.37;53.47;101013.16;5095443;28;20404;-57
2023/06/03 06:27:05;;;;;;;5.47;3.70;;;;;;;25.37;53.51;101016.72;5095239;28;20052;-55
2023/06/03 06:29:33;;;;;;;5.32;3.95;;;;;;;25.37;53.16;101015.88;5095315;28;20064;-55
2023/06/03 06:32:03;;;;;;;4.72;3.80;;;;;;;25.37;52.84;101021.31;5095462;28;20052;-54
2023/06/03 06:34:34;;;;;;;5.43;4.35;;;;;;;25.36;52.56;101025.00;5095217;28;20169;-55
2023/06/03 06:37:01;;;;;;;5.60;3.75;;;;;;;25.36;52.30;101025.00;5096265;28;20052;-55
2023/06/03 06:39:34;;;;;;;5.20;3.83;;;;;;;25.36;52.40;101033.13;5095063;28;20048;-54
2023/06/03 06:42:11;;;;;;;4.93;3.83;;;;;;;25.37;52.10;101026.72;5095272;28;20048;-55
2023/06/03 06:44:47;;;;;;;7.07;4.20;;;;;;;25.37;52.24;101021.31;5094872;28;20047;-56
2023/06/03 06:47:20;;;;;;;5.68;4.20;;;;;;;25.35;52.19;101026.88;5095162;28;20056;-55
2023/06/03 06:49:50;;;;;;;4.97;3.60;;;;;;;25.37;52.00;101032.16;5094885;28;20553;-55
2023/06/03 06:52:19;;;;;;;4.20;3.58;;;;;;;25.37;51.98;101032.16;5094941;28;20067;-54
2023/06/03 06:54:46;;;;;;;6.55;4.47;;;;;;;25.37;51.92;101035.69;5094575;28;20052;-55
2023/06/03 06:57:23;;;;;;;4.55;3.83;;;;;;;25.37;52.13;101037.56;5094998;28;20052;-55
2023/06/03 06:59:53;;;;;;;4.93;4.00;;;;;;;25.38;52.48;101042.81;5094272;28;20048;-55
2023/06/03 07:02:21;;;;;;;4.65;3.60;;;;;;;25.39;53.29;101044.50;5094985;28;20048;-55
2023/06/03 07:04:50;;;;;;;4.43;3.20;;;;;;;25.38;53.32;101042.81;5094694;28;20071;-55
2023/06/03 07:07:19;;;;;;;4.75;3.30;;;;;;;25.38;53.37;101031.97;5077778;28;20052;-55
2023/06/03 07:09:47;;;;;;;4.35;3.38;;;;;;;25.39;53.38;101032.81;5094434;28;20055;-55
2023/06/03 07:12:15;;;;;;;6.15;3.67;;;;;;;25.40;53.14;101045.34;5094638;28;20059;-55
2023/06/03 07:14:43;;;;;;;4.38;3.55;;;;;;;25.41;53.21;101041.63;5094302;28;20048;-54
2023/06/03 07:17:10;;;;;;;5.85;4.32;;;;;;;25.39;52.67;101043.66;5094470;28;20059;-56
2023/06/03 07:19:38;;;;;;;5.70;4.63;;;;;;;25.27;52.31;101048.53;5095550;28;20044;-56
2023/06/03 07:22:08;;;;;;;4.97;4.47;;;;;;;25.18;52.19;101046.81;5093719;28;20050;-60
2023/06/03 07:24:38;;;;;;;5.18;4.25;;;;;;;25.09;52.10;101042.41;5088833;28;20053;-60
2023/06/03 07:27:07;;;;;;;4.93;4.28;;;;;;;25.03;51.84;101048.44;5076005;28;20060;-60
2023/06/03 07:29:38;;;;;;;6.68;3.80;;;;;;;25.02;51.87;101046.75;5073967;28;20048;-52
2023/06/03 07:32:09;;;;;;;;;;;;;;;25.00;51.87;101046.91;5074575;28;20053;-52
2023/06/03 07:34:39;;;;;;;4.68;3.75;;;;;;;25.02;51.94;101047.59;5073966;28;20368;-55
2023/06/03 07:37:11;;;;;;;6.10;3.58;;;;;;;25.02;51.92;101044.03;5073584;28;20052;-55
2023/06/03 07:39:41;;;;;;;5.95;4.13;;;;;;;24.96;51.94;101039.28;5074067;28;20419;-56
2023/06/03 07:42:22;;;;;;;4.22;3.60;;;;;;;24.90;51.66;101041.63;5073786;28;20052;-54
2023/06/03 07:44:58;;;;;;;3.95;3.13;;;;;;;24.93;51.65;101035.03;5073715;28;20052;-56
2023/06/03 07:47:26;;;;;;;5.25;4.22;;;;;;;24.97;51.79;101040.97;5074729;28;20496;-56
2023/06/03 07:49:55;;;;;;;5.97;4.03;;;;;;;25.00;51.50;101035.25;5074705;28;20052;-56
2023/06/03 07:52:23;;;;;;;5.82;3.88;;;;;;;25.01;51.60;101032.34;5074770;28;20048;-56
2023/06/03 07:54:50;;;;;;;4.90;3.80;;;;;;;25.03;51.15;101034.88;5074651;28;20521;-56
2023/06/03 07:57:18;;;;;;;5.22;4.22;;;;;;;25.07;51.24;101039.81;5074657;28;20040;-57
2023/06/03 07:59:55;;;;;;;4.72;3.67;;;;;;;25.10;51.61;101033.25;5074593;28;20049;-57
2023/06/03 08:02:22;;;;;;;4.32;3.83;;;;;;;25.10;51.20;101028.69;5074820;28;20052;-56
2023/06/03 08:04:53;;;;;;;5.45;3.80;;;;;;;25.09;51.51;101035.13;5074487;28;20056;-55
2023/06/03 08:07:22;;;;;;;4.68;3.75;;;;;;;25.12;51.37;101033.97;5073848;28;20045;-55
2023/06/03 08:09:49;;;;;;;4.07;3.47;;;;;;;25.15;51.52;101029.03;5073878;28;20052;-55
2023/06/03 08:12:25;;;;;;;4.47;3.58;;;;;;;25.19;51.32;101029.56;5089555;28;20044;-53
2023/06/03 08:14:52;;;;;;;4.47;3.83;;;;;;;25.22;51.35;101029.22;5093241;28;20048;-54
2023/06/03 08:17:35;;;;;;;5.07;4.00;;;;;;;25.24;51.36;101037.19;5094384;28;20492;-54
2023/06/03 08:20:08;;;;;;;4.80;4.15;;;;;;;25.25;51.37;101031.59;5093694;28;20047;-56
2023/06/03 08:22:41;;;;;;;4.60;3.90;;;;;;;25.23;51.22;101035.50;5093978;28;20048;-57
2023/06/03 08:25:09;;;;;;;4.88;3.90;;;;;;;25.22;50.95;101037.34;5094243;28;20048;-58
2023/06/03 08:27:37;;;;;;;5.30;4.28;;;;;;;25.19;50.87;101036.84;5093937;28;20055;-57
2023/06/03 08:30:07;;;;;;;6.82;3.78;;;;;;;25.12;50.72;101047.50;5094526;28;20059;-53
2023/06/03 08:32:44;;;;;;;4.35;3.95;;;;;;;25.08;51.09;101041.53;5093697;28;20052;-57
2023/06/03 08:35:21;;;;;;;4.22;3.60;;;;;;;25.06;50.80;101040.81;5093747;28;20048;-57
2023/06/03 08:37:48;;;;;;;6.78;4.22;;;;;;;25.04;50.81;101039.31;5093644;28;20499;-58
2023/06/03 08:40:17;;;;;;;5.35;3.58;;;;;;;24.99;50.68;101047.91;5093438;28;20389;-57
2023/06/03 08:42:47;;;;;;;5.47;4.15;;;;;;;24.96;50.49;101045.56;5093654;28;20048;-59
2023/06/03 08:45:16;;;;;;;4.60;3.95;;;;;;;24.96;50.64;101042.00;5093703;28;20040;-59
2023/06/03 08:47:56;;;;;;;4.20;3.75;;;;;;;24.97;50.49;101041.81;5093717;28;20050;-59
2023/06/03 08:50:26;;;;;;;4.35;3.72;;;;;;;25.01;50.68;101040.47;5093806;28;20067;-48
2023/06/03 08:52:54;;;;;;;4.65;3.97;;;;;;;25.02;50.95;101044.88;5093768;28;20048;-49
2023/06/03 08:55:22;;;;;;;5.47;4.22;;;;;;;25.05;50.90;101046.44;5093813;28;20392;-52
2023/06/03 08:57:58;;;;;;;4.60;3.63;;;;;;;25.08;51.29;101046.94;5093869;28;20048;-51
2023/06/03 09:00:26;;;;;;;5.10;3.45;;;;;;;25.11;51.35;101043.91;5093787;28;20052;-56
2023/06/03 09:02:55;;;;;;;6.50;4.68;;;;;;;25.08;51.49;101054.22;5093654;28;20051;-56
2023/06/03 09:05:23;;;;;;;4.70;3.80;;;;;;;25.05;51.60;101044.56;5093171;28;20044;-56
2023/06/03 09:07:51;;;;;;;5.30;4.20;;;;;;;25.05;51.61;101049.97;5093243;28;20044;-56
2023/06/03 09:10:22;;;;;;;4.45;4.05;;;;;;;25.06;51.62;101053.53;5093869;28;20376;-54
2023/06/03 09:12:50;;;;;;;8.20;3.92;;;;;;;25.10;51.51;101049.50;5087281;28;20052;-56
2023/06/03 09:15:18;;;;;;;4.97;3.65;;;;;;;25.13;51.87;101046.47;5085776;28;20039;-56
2023/06/03 09:17:45;;;;;;;5.65;4.00;;;;;;;25.18;52.04;101056.81;5090427;28;20044;-55
2023/06/03 09:20:13;;;;;;;4.90;3.72;;;;;;;25.23;51.77;101049.88;5071557;28;20041;-57
2023/06/03 09:22:43;;;;;;;5.25;4.30;;;;;;;25.27;51.83;101047.69;5072948;28;20044;-58
2023/06/03 09:25:10;;;;;;;4.60;4.00;;;;;;;25.30;51.76;101045.50;5088412;28;20048;-58
2023/06/03 09:27:40;;;;;;;5.20;4.03;;;;;;;25.29;51.43;101040.25;5092593;28;20044;-58
2023/06/03 09:30:08;;;;;;;6.28;3.90;;;;;;;25.28;51.48;101050.25;5092800;28;20051;-58
2023/06/03 09:32:38;;;;;;;5.47;4.43;;;;;;;25.24;51.52;101037.19;5093923;28;20051;-58
2023/06/03 09:35:06;;;;;;;4.25;3.65;;;;;;;25.22;51.89;101042.78;5096748;28;20047;-57
2023/06/03 09:37:34;;;;;;;7.28;4.72;;;;;;;25.18;52.34;101048.69;5094969;28;20040;-60
2023/06/03 09:40:04;;;;;;;4.70;4.25;;;;;;;25.09;52.20;101048.66;5083549;28;20052;-61
2023/06/03 09:42:42;;;;;;;5.38;4.32;;;;;;;25.07;52.30;101045.22;5087889;28;20044;-58
2023/06/03 09:45:32;;;;;;;4.35;3.92;;;;;;;25.09;52.35;101048.66;5076858;28;20396;-58
2023/06/03 09:48:00;;;;;;;6.03;4.07;;;;;;;25.12;52.17;101045.63;5090153;28;20408;-59
2023/06/03 09:50:30;;;;;;;5.93;5.03;;;;;;;25.13;51.82;101036.50;5077010;28;20060;-58
2023/06/03 09:52:59;;;;;;;5.78;4.38;;;;;;;25.14;51.73;101034.63;5076562;28;20049;-59
2023/06/03 09:55:35;;;;;;;5.18;4.20;;;;;;;25.14;51.49;101031.91;5076451;28;20052;-58
2023/06/03 09:58:04;;;;;;;5.85;4.45;;;;;;;25.12;52.12;101032.09;5076806;28;20056;-58
2023/06/03 10:00:46;;;;;;;5.35;4.45;;;;;;;25.06;52.01;101029.16;5076466;28;20624;-57
2023/06/03 10:03:14;;;;;;;6.53;5.20;;;;;;;24.99;51.82;101028.94;5080295;28;20051;-57
2023/06/03 10:05:42;;;;;;;7.95;5.35;;;;;;;24.99;51.78;101034.38;5096582;28;20044;-56
2023/06/03 10:08:09;;;;;;;5.65;4.50;;;;;;;24.97;52.33;101025.56;5096657;28;20049;-58
2023/06/03 10:10:54;;;;;;;6.00;4.97;;;;;;;24.94;52.35;101027.75;5096447;28;20048;-56
2023/06/03 10:13:21;;;;;;;7.18;4.85;;;;;;;24.96;52.37;101023.88;5096522;28;20047;-60
2023/06/03 10:15:50;;;;;;;5.38;4.88;;;;;;;25.01;52.38;101026.94;5096668;28;20051;-59
2023/06/03 10:18:17;;;;;;;5.93;4.82;;;;;;;24.98;52.63;101021.84;5096291;28;20040;-60
2023/06/03 10:20:45;;;;;;;6.40;5.63;;;;;;;24.98;52.48;101016.44;5074841;28;20037;-59
2023/06/03 10:23:12;;;;;;;5.53;4.57;;;;;;;25.01;52.65;101021.53;5076346;28;20045;-60
2023/06/03 10:25:43;;;;;;;5.63;4.55;;;;;;;25.06;52.67;101024.56;5083532;28;20051;-60
2023/06/03 10:28:12;;;;;;;5.22;4.68;;;;;;;25.11;53.09;101016.81;5095314;28;20388;-58
2023/06/03 10:30:41;;;;;;;5.32;4.07;;;;;;;25.17;52.96;101011.78;5096315;28;20055;-56
2023/06/03 10:33:09;;;;;;;5.78;4.40;;;;;;;25.21;54.40;101011.28;5096014;28;20052;-55
2023/06/03 10:35:37;;;;;;;8.25;5.15;;;;;;;25.24;55.57;101010.06;5086376;28;20040;-55
2023/06/03 10:38:07;;;;;;;5.45;4.68;;;;;;;25.25;56.26;101009.94;5075394;28;20056;-57
2023/06/03 10:40:35;;;;;;;5.32;4.38;;;;;;;25.26;56.41;101013.50;5080214;28;20059;-56
2023/06/03 10:43:03;;;;;;;6.03;5.22;;;;;;;25.26;55.57;101010.78;5084127;28;20491;-57
2023/06/03 10:45:31;;;;;;;7.28;5.80;;;;;;;25.21;54.96;101013.16;5095998;28;20055;-56
2023/06/03 10:48:09;;;;;;;5.90;5.30;;;;;;;25.17;54.87;101014.50;5092699;28;20055;-54
2023/06/03 10:50:42;;;;;;;6.18;5.28;;;;;;;25.14;54.51;101008.38;5095804;28;20040;-59
2023/06/03 10:53:10;;;;;;;6.75;5.07;;;;;;;25.14;54.62;101012.94;5095536;28;20048;-58
2023/06/03 10:56:01;;;;;;;6.18;5.43;;;;;;;25.14;55.12;101004.81;5095891;28;20048;-60
2023/06/03 10:58:29;;;;;;;5.63;5.05;;;;;;;25.15;55.88;101004.63;5095769;28;20055;-60
2023/06/03 11:00:58;;;;;;;6.32;5.72;;;;;;;25.15;55.48;101001.94;5095182;28;20058;-60
2023/06/03 11:03:34;;;;;;;6.10;5.50;;;;;;;25.15;55.70;100999.22;5095072;28;20055;-59
2023/06/03 11:06:21;;;;;;;6.50;5.13;;;;;;;25.15;55.75;101001.94;5095670;28;20055;-58
2023/06/03 11:09:08;;;;;;;6.68;4.95;;;;;;;25.17;55.74;100990.94;5095837;28;20044;-55
2023/06/03 11:11:39;;;;;;;5.38;4.88;;;;;;;25.19;56.86;100986.19;5094908;28;20047;-53
2023/06/03 11:14:07;;;;;;;7.95;5.20;;;;;;;25.19;57.42;100986.19;5093904;28;20050;-54
2023/06/03 11:16:56;;;;;;;5.63;4.60;;;;;;;25.20;57.79;100987.91;5094359;28;20056;-55
2023/06/03 11:19:35;;;;;;;6.22;5.30;;;;;;;25.21;58.00;100984.19;5095416;28;20058;-55
2023/06/03 11:22:04;;;;;;;6.03;5.20;;;;;;;25.23;58.49;100984.00;5073669;28;20511;-54
2023/06/03 11:24:38;;;;;;;5.60;4.63;;;;;;;25.24;58.51;100988.41;5074788;28;20041;-55
2023/06/03 11:27:18;;;;;;;5.10;4.60;;;;;;;25.23;58.79;100986.72;5075172;28;20044;-54
2023/06/03 11:29:45;;;;;;;5.75;4.50;;;;;;;25.24;59.06;100988.41;5074137;28;20048;-54
2023/06/03 11:32:18;;;;;;;5.35;4.57;;;;;;;25.24;59.05;100972.16;5074070;28;20507;-59
2023/06/03 11:34:50;;;;;;;5.63;5.03;;;;;;;25.24;59.06;100977.56;5076730;28;20048;-59
2023/06/03 11:37:19;;;;;;;5.50;4.68;;;;;;;25.25;59.44;100973.88;5094105;28;20048;-59
2023/06/03 11:40:09;;;;;;;5.90;4.57;;;;;;;25.24;59.21;100969.44;5093143;28;20487;-59
2023/06/03 11:42:48;;;;;;;5.13;4.57;;;;;;;25.25;59.42;100968.44;5094401;28;20051;-55